sensor_id;sensor_type;location;lat;lon;timestamp;P1;durP1;ratioP1;P2;durP2;ratioP2
19414;SDS011;9843;48.882;12.592;2023-05-02T00:01:51;24.73;;;22.17;;
19414;SDS011;9843;48.882;12.592;2023-05-02T00:04:18;29.20;;;21.83;;
19414;SDS011;9843;48.882;12.592;2023-05-02T00:06:45;24.40;;;21.93;;
19414;SDS011;9843;48.882;12.592;2023-05-02T00:09:12;24.60;;;22.03;;
19414;SDS011;9843;48.882;12.592;2023-05-02T00:11:39;21.50;;;19.27;;
19414;SDS011;9843;48.882;12.592;2023-05-02T00:14:06;24.53;;;21.47;;
19414;SDS011;9843;48.882;12.592;2023-05-02T00:16:34;24.40;;;21.93;;
19414;SDS011;9843;48.882;12.592;2023-05-02T00:19:02;25.97;;;23.27;;
19414;SDS011;9843;48.882;12.592;2023-05-02T00:21:29;26.73;;;23.33;;
19414;SDS011;9843;48.882;12.592;2023-05-02T00:23:57;32.20;;;25.27;;
19414;SDS011;9843;48.882;12.592;2023-05-02T00:26:24;29.53;;;23.53;;
19414;SDS011;9843;48.882;12.592;2023-05-02T00:28:51;27.23;;;24.17;;
19414;SDS011;9843;48.882;12.592;2023-05-02T00:31:18;32.10;;;26.77;;
19414;SDS011;9843;48.882;12.592;2023-05-02T00:33:45;30.43;;;25.40;;
19414;SDS011;9843;48.882;12.592;2023-05-02T00:36:14;28.57;;;25.67;;
19414;SDS011;9843;48.882;12.592;2023-05-02T00:38:41;24.70;;;21.83;;
19414;SDS011;9843;48.882;12.592;2023-05-02T00:41:08;23.03;;;20.53;;
19414;SDS011;9843;48.882;12.592;2023-05-02T00:43:35;29.23;;;24.20;;
19414;SDS011;9843;48.882;12.592;2023-05-02T00:46:04;28.33;;;25.30;;
19414;SDS011;9843;48.882;12.592;2023-05-02T00:48:31;29.07;;;24.20;;
19414;SDS011;9843;48.882;12.592;2023-05-02T00:50:58;28.43;;;24.93;;
19414;SDS011;9843;48.882;12.592;2023-05-02T00:53:30;26.97;;;23.77;;
19414;SDS011;9843;48.882;12.592;2023-05-02T00:55:57;32.30;;;23.77;;
19414;SDS011;9843;48.882;12.592;2023-05-02T00:58:24;26.87;;;23.73;;
19414;SDS011;9843;48.882;12.592;2023-05-02T01:00:56;28.07;;;24.83;;
19414;SDS011;9843;48.882;12.592;2023-05-02T01:03:33;29.00;;;24.77;;
19414;SDS011;9843;48.882;12.592;2023-05-02T01:06:04;30.70;;;25.93;;
19414;SDS011;9843;48.882;12.592;2023-05-02T01:08:38;26.13;;;23.20;;
19414;SDS011;9843;48.882;12.592;2023-05-02T01:11:09;26.80;;;23.40;;
19414;SDS011;9843;48.882;12.592;2023-05-02T01:13:40;28.53;;;25.50;;
19414;SDS011;9843;48.882;12.592;2023-05-02T01:16:08;26.47;;;23.33;;
19414;SDS011;9843;48.882;12.592;2023-05-02T01:18:37;27.87;;;24.70;;
19414;SDS011;9843;48.882;12.592;2023-05-02T01:21:07;26.87;;;23.73;;
19414;SDS011;9843;48.882;12.592;2023-05-02T01:23:40;26.73;;;23.37;;
19414;SDS011;9843;48.882;12.592;2023-05-02T01:26:14;25.93;;;23.00;;
19414;SDS011;9843;48.882;12.592;2023-05-02T01:28:58;29.23;;;25.80;;
19414;SDS011;9843;48.882;12.592;2023-05-02T01:31:26;28.20;;;24.73;;
19414;SDS011;9843;48.882;12.592;2023-05-02T01:33:54;29.87;;;26.77;;
19414;SDS011;9843;48.882;12.592;2023-05-02T01:36:23;31.67;;;25.90;;
19414;SDS011;9843;48.882;12.592;2023-05-02T01:38:52;39.27;;;25.87;;
19414;SDS011;9843;48.882;12.592;2023-05-02T01:41:20;32.90;;;26.50;;
19414;SDS011;9843;48.882;12.592;2023-05-02T01:43:48;36.50;;;28.20;;
19414;SDS011;9843;48.882;12.592;2023-05-02T01:46:17;29.07;;;25.93;;
19414;SDS011;9843;48.882;12.592;2023-05-02T01:48:45;30.27;;;26.93;;
19414;SDS011;9843;48.882;12.592;2023-05-02T01:51:13;31.93;;;27.17;;
19414;SDS011;9843;48.882;12.592;2023-05-02T01:53:41;31.77;;;26.53;;
19414;SDS011;9843;48.882;12.592;2023-05-02T01:56:10;31.13;;;27.70;;
19414;SDS011;9843;48.882;12.592;2023-05-02T01:58:38;34.70;;;27.53;;
19414;SDS011;9843;48.882;12.592;2023-05-02T02:01:05;30.90;;;27.50;;
19414;SDS011;9843;48.882;12.592;2023-05-02T02:03:36;30.00;;;26.70;;
19414;SDS011;9843;48.882;12.592;2023-05-02T02:06:03;30.43;;;27.13;;
19414;SDS011;9843;48.882;12.592;2023-05-02T02:08:31;36.90;;;28.27;;
19414;SDS011;9843;48.882;12.592;2023-05-02T02:10:59;28.67;;;25.63;;
19414;SDS011;9843;48.882;12.592;2023-05-02T02:13:28;41.50;;;30.00;;
19414;SDS011;9843;48.882;12.592;2023-05-02T02:15:58;33.20;;;28.77;;
19414;SDS011;9843;48.882;12.592;2023-05-02T02:18:26;29.57;;;25.37;;
19414;SDS011;9843;48.882;12.592;2023-05-02T02:20:55;34.07;;;30.43;;
19414;SDS011;9843;48.882;12.592;2023-05-02T02:23:25;28.63;;;25.03;;
19414;SDS011;9843;48.882;12.592;2023-05-02T02:25:52;34.30;;;27.47;;
19414;SDS011;9843;48.882;12.592;2023-05-02T02:28:21;27.43;;;24.43;;
19414;SDS011;9843;48.882;12.592;2023-05-02T02:30:48;30.50;;;25.30;;
19414;SDS011;9843;48.882;12.592;2023-05-02T02:33:15;30.67;;;24.80;;
19414;SDS011;9843;48.882;12.592;2023-05-02T02:35:43;28.27;;;25.37;;
19414;SDS011;9843;48.882;12.592;2023-05-02T02:38:18;29.40;;;25.60;;
19414;SDS011;9843;48.882;12.592;2023-05-02T02:40:46;31.43;;;25.93;;
19414;SDS011;9843;48.882;12.592;2023-05-02T02:43:18;28.23;;;25.23;;
19414;SDS011;9843;48.882;12.592;2023-05-02T02:45:49;32.73;;;27.13;;
19414;SDS011;9843;48.882;12.592;2023-05-02T02:48:22;27.50;;;24.53;;
19414;SDS011;9843;48.882;12.592;2023-05-02T02:50:53;31.30;;;26.37;;
19414;SDS011;9843;48.882;12.592;2023-05-02T02:53:26;31.13;;;26.80;;
19414;SDS011;9843;48.882;12.592;2023-05-02T02:55:59;30.93;;;25.57;;
19414;SDS011;9843;48.882;12.592;2023-05-02T02:58:29;33.97;;;28.93;;
19414;SDS011;9843;48.882;12.592;2023-05-02T03:00:57;33.33;;;29.53;;
19414;SDS011;9843;48.882;12.592;2023-05-02T03:03:27;31.90;;;27.67;;
19414;SDS011;9843;48.882;12.592;2023-05-02T03:05:55;33.17;;;29.50;;
19414;SDS011;9843;48.882;12.592;2023-05-02T03:08:22;41.30;;;32.47;;
19414;SDS011;9843;48.882;12.592;2023-05-02T03:10:51;37.10;;;30.93;;
19414;SDS011;9843;48.882;12.592;2023-05-02T03:13:18;37.30;;;31.20;;
19414;SDS011;9843;48.882;12.592;2023-05-02T03:16:00;38.77;;;33.90;;
19414;SDS011;9843;48.882;12.592;2023-05-02T03:18:32;32.27;;;28.30;;
19414;SDS011;9843;48.882;12.592;2023-05-02T03:20:59;41.27;;;32.97;;
19414;SDS011;9843;48.882;12.592;2023-05-02T03:23:27;40.10;;;33.20;;
19414;SDS011;9843;48.882;12.592;2023-05-02T03:25:55;39.80;;;32.53;;
19414;SDS011;9843;48.882;12.592;2023-05-02T03:28:22;40.40;;;33.47;;
19414;SDS011;9843;48.882;12.592;2023-05-02T03:30:49;41.67;;;32.33;;
19414;SDS011;9843;48.882;12.592;2023-05-02T03:33:16;36.73;;;32.77;;
19414;SDS011;9843;48.882;12.592;2023-05-02T03:35:44;38.60;;;33.90;;
19414;SDS011;9843;48.882;12.592;2023-05-02T03:38:11;37.40;;;31.03;;
19414;SDS011;9843;48.882;12.592;2023-05-02T03:40:38;39.57;;;30.40;;
19414;SDS011;9843;48.882;12.592;2023-05-02T03:43:06;42.87;;;32.13;;
19414;SDS011;9843;48.882;12.592;2023-05-02T03:45:33;34.33;;;30.43;;
19414;SDS011;9843;48.882;12.592;2023-05-02T03:48:01;46.13;;;30.37;;
19414;SDS011;9843;48.882;12.592;2023-05-02T03:50:28;39.03;;;30.53;;
19414;SDS011;9843;48.882;12.592;2023-05-02T03:52:55;38.30;;;30.47;;
19414;SDS011;9843;48.882;12.592;2023-05-02T03:55:22;38.30;;;32.50;;
19414;SDS011;9843;48.882;12.592;2023-05-02T03:57:49;32.47;;;28.43;;
19414;SDS011;9843;48.882;12.592;2023-05-02T04:00:17;35.27;;;30.13;;
19414;SDS011;9843;48.882;12.592;2023-05-02T04:02:44;45.33;;;34.43;;
19414;SDS011;9843;48.882;12.592;2023-05-02T04:05:11;39.37;;;29.97;;
19414;SDS011;9843;48.882;12.592;2023-05-02T04:07:38;39.50;;;29.10;;
19414;SDS011;9843;48.882;12.592;2023-05-02T04:10:06;34.17;;;30.03;;
19414;SDS011;9843;48.882;12.592;2023-05-02T04:12:40;34.33;;;28.13;;
19414;SDS011;9843;48.882;12.592;2023-05-02T04:15:07;37.20;;;29.50;;
19414;SDS011;9843;48.882;12.592;2023-05-02T04:17:36;32.00;;;28.27;;
19414;SDS011;9843;48.882;12.592;2023-05-02T04:20:03;34.50;;;28.63;;
19414;SDS011;9843;48.882;12.592;2023-05-02T04:22:31;35.40;;;29.97;;
19414;SDS011;9843;48.882;12.592;2023-05-02T04:24:58;32.73;;;27.57;;
19414;SDS011;9843;48.882;12.592;2023-05-02T04:27:25;37.67;;;29.43;;
19414;SDS011;9843;48.882;12.592;2023-05-02T04:29:52;33.93;;;27.97;;
19414;SDS011;9843;48.882;12.592;2023-05-02T04:32:20;30.00;;;26.53;;
19414;SDS011;9843;48.882;12.592;2023-05-02T04:34:48;34.87;;;29.03;;
19414;SDS011;9843;48.882;12.592;2023-05-02T04:37:16;35.57;;;29.13;;
19414;SDS011;9843;48.882;12.592;2023-05-02T04:39:43;34.80;;;28.40;;
19414;SDS011;9843;48.882;12.592;2023-05-02T04:42:10;31.10;;;27.77;;
19414;SDS011;9843;48.882;12.592;2023-05-02T04:44:37;35.97;;;29.80;;
19414;SDS011;9843;48.882;12.592;2023-05-02T04:47:04;34.90;;;29.07;;
19414;SDS011;9843;48.882;12.592;2023-05-02T04:49:31;29.93;;;25.67;;
19414;SDS011;9843;48.882;12.592;2023-05-02T04:52:00;42.07;;;29.53;;
19414;SDS011;9843;48.882;12.592;2023-05-02T04:54:27;37.23;;;30.10;;
19414;SDS011;9843;48.882;12.592;2023-05-02T04:56:54;36.50;;;30.77;;
19414;SDS011;9843;48.882;12.592;2023-05-02T04:59:21;40.87;;;28.60;;
19414;SDS011;9843;48.882;12.592;2023-05-02T05:01:48;35.80;;;28.97;;
19414;SDS011;9843;48.882;12.592;2023-05-02T05:04:15;33.10;;;26.63;;
19414;SDS011;9843;48.882;12.592;2023-05-02T05:06:42;38.37;;;31.10;;
19414;SDS011;9843;48.882;12.592;2023-05-02T05:09:12;33.23;;;29.03;;
19414;SDS011;9843;48.882;12.592;2023-05-02T05:11:39;40.33;;;28.67;;
19414;SDS011;9843;48.882;12.592;2023-05-02T05:14:06;32.47;;;27.17;;
19414;SDS011;9843;48.882;12.592;2023-05-02T05:16:34;33.33;;;27.90;;
19414;SDS011;9843;48.882;12.592;2023-05-02T05:19:01;37.33;;;29.33;;
19414;SDS011;9843;48.882;12.592;2023-05-02T05:21:29;36.87;;;28.90;;
19414;SDS011;9843;48.882;12.592;2023-05-02T05:23:56;31.63;;;24.47;;
19414;SDS011;9843;48.882;12.592;2023-05-02T05:26:24;32.50;;;24.97;;
19414;SDS011;9843;48.882;12.592;2023-05-02T05:28:51;30.13;;;26.40;;
19414;SDS011;9843;48.882;12.592;2023-05-02T05:31:18;34.83;;;28.80;;
19414;SDS011;9843;48.882;12.592;2023-05-02T05:33:47;37.23;;;27.40;;
19414;SDS011;9843;48.882;12.592;2023-05-02T05:36:14;35.17;;;25.57;;
19414;SDS011;9843;48.882;12.592;2023-05-02T05:38:41;37.70;;;29.07;;
19414;SDS011;9843;48.882;12.592;2023-05-02T05:41:08;41.50;;;25.90;;
19414;SDS011;9843;48.882;12.592;2023-05-02T05:43:37;44.30;;;30.43;;
19414;SDS011;9843;48.882;12.592;2023-05-02T05:46:04;34.40;;;27.50;;
19414;SDS011;9843;48.882;12.592;2023-05-02T05:48:31;35.47;;;27.20;;
19414;SDS011;9843;48.882;12.592;2023-05-02T05:51:01;32.70;;;27.63;;
19414;SDS011;9843;48.882;12.592;2023-05-02T05:53:29;39.33;;;26.63;;
19414;SDS011;9843;48.882;12.592;2023-05-02T05:55:56;32.07;;;26.23;;
19414;SDS011;9843;48.882;12.592;2023-05-02T05:58:23;34.63;;;25.97;;
19414;SDS011;9843;48.882;12.592;2023-05-02T06:00:52;31.00;;;26.40;;
19414;SDS011;9843;48.882;12.592;2023-05-02T06:03:19;28.97;;;24.03;;
19414;SDS011;9843;48.882;12.592;2023-05-02T06:05:46;29.93;;;24.37;;
19414;SDS011;9843;48.882;12.592;2023-05-02T06:08:13;34.97;;;28.27;;
19414;SDS011;9843;48.882;12.592;2023-05-02T06:10:40;36.00;;;27.63;;
19414;SDS011;9843;48.882;12.592;2023-05-02T06:13:07;37.00;;;28.90;;
19414;SDS011;9843;48.882;12.592;2023-05-02T06:15:34;31.50;;;25.90;;
19414;SDS011;9843;48.882;12.592;2023-05-02T06:18:02;29.20;;;26.03;;
19414;SDS011;9843;48.882;12.592;2023-05-02T06:20:29;31.33;;;26.00;;
19414;SDS011;9843;48.882;12.592;2023-05-02T06:22:56;33.17;;;29.10;;
19414;SDS011;9843;48.882;12.592;2023-05-02T06:25:24;32.10;;;26.33;;
19414;SDS011;9843;48.882;12.592;2023-05-02T06:27:51;34.73;;;26.87;;
19414;SDS011;9843;48.882;12.592;2023-05-02T06:30:18;33.13;;;27.70;;
19414;SDS011;9843;48.882;12.592;2023-05-02T06:32:45;35.37;;;27.37;;
19414;SDS011;9843;48.882;12.592;2023-05-02T06:35:14;31.30;;;26.87;;
19414;SDS011;9843;48.882;12.592;2023-05-02T06:37:41;39.10;;;29.80;;
19414;SDS011;9843;48.882;12.592;2023-05-02T06:40:08;35.13;;;28.13;;
19414;SDS011;9843;48.882;12.592;2023-05-02T06:42:35;35.20;;;28.37;;
19414;SDS011;9843;48.882;12.592;2023-05-02T06:45:03;37.63;;;31.20;;
19414;SDS011;9843;48.882;12.592;2023-05-02T06:47:30;34.47;;;29.13;;
19414;SDS011;9843;48.882;12.592;2023-05-02T06:49:57;34.17;;;28.67;;
19414;SDS011;9843;48.882;12.592;2023-05-02T06:52:25;36.93;;;31.37;;
19414;SDS011;9843;48.882;12.592;2023-05-02T06:54:52;35.97;;;28.50;;
19414;SDS011;9843;48.882;12.592;2023-05-02T06:57:19;38.80;;;31.77;;
19414;SDS011;9843;48.882;12.592;2023-05-02T06:59:46;34.20;;;28.27;;
19414;SDS011;9843;48.882;12.592;2023-05-02T07:02:13;39.57;;;28.90;;
19414;SDS011;9843;48.882;12.592;2023-05-02T07:04:40;35.30;;;29.40;;
19414;SDS011;9843;48.882;12.592;2023-05-02T07:07:07;35.37;;;30.10;;
19414;SDS011;9843;48.882;12.592;2023-05-02T07:09:36;35.73;;;27.67;;
19414;SDS011;9843;48.882;12.592;2023-05-02T07:12:03;29.53;;;25.50;;
19414;SDS011;9843;48.882;12.592;2023-05-02T07:14:30;37.10;;;28.07;;
19414;SDS011;9843;48.882;12.592;2023-05-02T07:16:57;33.17;;;28.07;;
19414;SDS011;9843;48.882;12.592;2023-05-02T07:19:24;36.00;;;28.90;;
19414;SDS011;9843;48.882;12.592;2023-05-02T07:21:51;37.90;;;29.20;;
19414;SDS011;9843;48.882;12.592;2023-05-02T07:24:18;48.30;;;30.67;;
19414;SDS011;9843;48.882;12.592;2023-05-02T07:26:47;32.07;;;26.60;;
19414;SDS011;9843;48.882;12.592;2023-05-02T07:29:14;27.83;;;24.30;;
19414;SDS011;9843;48.882;12.592;2023-05-02T07:31:41;32.87;;;27.40;;
19414;SDS011;9843;48.882;12.592;2023-05-02T07:34:08;33.40;;;26.30;;
19414;SDS011;9843;48.882;12.592;2023-05-02T07:36:35;28.57;;;25.57;;
19414;SDS011;9843;48.882;12.592;2023-05-02T07:39:02;30.50;;;26.27;;
19414;SDS011;9843;48.882;12.592;2023-05-02T07:41:29;32.87;;;29.00;;
19414;SDS011;9843;48.882;12.592;2023-05-02T07:43:57;30.37;;;25.97;;
19414;SDS011;9843;48.882;12.592;2023-05-02T07:46:24;25.30;;;22.10;;
19414;SDS011;9843;48.882;12.592;2023-05-02T07:48:51;25.13;;;22.43;;
19414;SDS011;9843;48.882;12.592;2023-05-02T07:51:18;30.30;;;24.67;;
19414;SDS011;9843;48.882;12.592;2023-05-02T07:53:48;30.97;;;23.43;;
19414;SDS011;9843;48.882;12.592;2023-05-02T07:56:17;26.07;;;20.90;;
19414;SDS011;9843;48.882;12.592;2023-05-02T07:58:44;29.60;;;24.53;;
19414;SDS011;9843;48.882;12.592;2023-05-02T08:01:12;27.50;;;23.17;;
19414;SDS011;9843;48.882;12.592;2023-05-02T08:03:39;30.80;;;25.20;;
19414;SDS011;9843;48.882;12.592;2023-05-02T08:06:06;28.47;;;23.50;;
19414;SDS011;9843;48.882;12.592;2023-05-02T08:08:33;30.47;;;24.30;;
19414;SDS011;9843;48.882;12.592;2023-05-02T08:11:00;27.57;;;24.40;;
19414;SDS011;9843;48.882;12.592;2023-05-02T08:13:27;27.87;;;24.87;;
19414;SDS011;9843;48.882;12.592;2023-05-02T08:15:54;32.73;;;25.73;;
19414;SDS011;9843;48.882;12.592;2023-05-02T08:18:23;25.33;;;22.70;;
19414;SDS011;9843;48.882;12.592;2023-05-02T08:20:50;31.40;;;24.57;;
19414;SDS011;9843;48.882;12.592;2023-05-02T08:23:18;30.47;;;22.77;;
19414;SDS011;9843;48.882;12.592;2023-05-02T08:25:45;26.30;;;21.57;;
19414;SDS011;9843;48.882;12.592;2023-05-02T08:28:12;30.33;;;24.03;;
19414;SDS011;9843;48.882;12.592;2023-05-02T08:30:39;25.90;;;23.07;;
19414;SDS011;9843;48.882;12.592;2023-05-02T08:33:06;31.97;;;25.23;;
19414;SDS011;9843;48.882;12.592;2023-05-02T08:35:34;32.13;;;25.37;;
19414;SDS011;9843;48.882;12.592;2023-05-02T08:38:01;25.93;;;22.97;;
19414;SDS011;9843;48.882;12.592;2023-05-02T08:40:28;32.30;;;24.43;;
19414;SDS011;9843;48.882;12.592;2023-05-02T08:43:00;32.70;;;25.30;;
19414;SDS011;9843;48.882;12.592;2023-05-02T08:45:28;27.53;;;23.80;;
19414;SDS011;9843;48.882;12.592;2023-05-02T08:47:57;27.63;;;24.33;;
19414;SDS011;9843;48.882;12.592;2023-05-02T08:50:24;29.37;;;23.97;;
19414;SDS011;9843;48.882;12.592;2023-05-02T08:52:53;32.43;;;26.67;;
19414;SDS011;9843;48.882;12.592;2023-05-02T08:57:50;26.33;;;23.20;;
19414;SDS011;9843;48.882;12.592;2023-05-02T09:00:18;26.40;;;23.37;;
19414;SDS011;9843;48.882;12.592;2023-05-02T09:02:49;30.17;;;23.97;;
19414;SDS011;9843;48.882;12.592;2023-05-02T09:05:18;27.93;;;24.00;;
19414;SDS011;9843;48.882;12.592;2023-05-02T09:07:46;38.33;;;30.17;;
19414;SDS011;9843;48.882;12.592;2023-05-02T09:10:15;36.00;;;27.23;;
19414;SDS011;9843;48.882;12.592;2023-05-02T09:12:42;36.23;;;28.40;;
19414;SDS011;9843;48.882;12.592;2023-05-02T09:15:09;33.30;;;26.27;;
19414;SDS011;9843;48.882;12.592;2023-05-02T09:17:40;30.97;;;25.50;;
19414;SDS011;9843;48.882;12.592;2023-05-02T09:20:08;30.97;;;24.20;;
19414;SDS011;9843;48.882;12.592;2023-05-02T09:22:36;32.17;;;26.00;;
19414;SDS011;9843;48.882;12.592;2023-05-02T09:25:04;36.03;;;27.90;;
19414;SDS011;9843;48.882;12.592;2023-05-02T09:30:21;32.63;;;27.77;;
19414;SDS011;9843;48.882;12.592;2023-05-02T09:32:49;31.57;;;24.53;;
19414;SDS011;9843;48.882;12.592;2023-05-02T09:35:16;32.60;;;27.73;;
19414;SDS011;9843;48.882;12.592;2023-05-02T09:37:48;34.33;;;29.27;;
19414;SDS011;9843;48.882;12.592;2023-05-02T09:40:15;35.33;;;28.17;;
19414;SDS011;9843;48.882;12.592;2023-05-02T09:42:43;33.43;;;29.37;;
19414;SDS011;9843;48.882;12.592;2023-05-02T09:45:18;33.10;;;28.23;;
19414;SDS011;9843;48.882;12.592;2023-05-02T09:47:47;34.43;;;24.90;;
19414;SDS011;9843;48.882;12.592;2023-05-02T09:50:33;28.23;;;25.37;;
19414;SDS011;9843;48.882;12.592;2023-05-02T09:53:00;34.67;;;28.97;;
19414;SDS011;9843;48.882;12.592;2023-05-02T09:55:27;32.07;;;26.20;;
19414;SDS011;9843;48.882;12.592;2023-05-02T09:57:55;32.83;;;27.13;;
19414;SDS011;9843;48.882;12.592;2023-05-02T10:00:22;37.07;;;27.93;;
19414;SDS011;9843;48.882;12.592;2023-05-02T10:02:50;31.23;;;27.73;;
19414;SDS011;9843;48.882;12.592;2023-05-02T10:05:17;33.87;;;25.10;;
19414;SDS011;9843;48.882;12.592;2023-05-02T10:07:45;30.67;;;26.13;;
19414;SDS011;9843;48.882;12.592;2023-05-02T10:10:13;30.10;;;24.47;;
19414;SDS011;9843;48.882;12.592;2023-05-02T10:12:42;28.47;;;25.30;;
19414;SDS011;9843;48.882;12.592;2023-05-02T10:15:10;30.67;;;26.37;;
19414;SDS011;9843;48.882;12.592;2023-05-02T10:17:39;32.63;;;25.80;;
19414;SDS011;9843;48.882;12.592;2023-05-02T10:20:10;31.40;;;27.43;;
19414;SDS011;9843;48.882;12.592;2023-05-02T10:22:41;29.30;;;25.87;;
19414;SDS011;9843;48.882;12.592;2023-05-02T10:25:09;31.57;;;26.83;;
19414;SDS011;9843;48.882;12.592;2023-05-02T10:27:36;27.60;;;24.60;;
19414;SDS011;9843;48.882;12.592;2023-05-02T10:30:03;22.50;;;19.97;;
19414;SDS011;9843;48.882;12.592;2023-05-02T10:32:31;27.30;;;24.63;;
19414;SDS011;9843;48.882;12.592;2023-05-02T10:35:01;28.10;;;22.80;;
19414;SDS011;9843;48.882;12.592;2023-05-02T10:37:30;24.00;;;20.87;;
19414;SDS011;9843;48.882;12.592;2023-05-02T10:39:58;25.37;;;21.57;;
19414;SDS011;9843;48.882;12.592;2023-05-02T10:42:25;25.27;;;19.57;;
19414;SDS011;9843;48.882;12.592;2023-05-02T10:44:52;24.23;;;21.73;;
19414;SDS011;9843;48.882;12.592;2023-05-02T10:47:20;26.83;;;21.87;;
19414;SDS011;9843;48.882;12.592;2023-05-02T10:49:48;23.43;;;19.07;;
19414;SDS011;9843;48.882;12.592;2023-05-02T10:52:25;24.10;;;21.37;;
19414;SDS011;9843;48.882;12.592;2023-05-02T10:57:37;19.50;;;17.37;;
19414;SDS011;9843;48.882;12.592;2023-05-02T11:00:23;21.80;;;19.60;;
19414;SDS011;9843;48.882;12.592;2023-05-02T11:02:51;22.53;;;20.23;;
19414;SDS011;9843;48.882;12.592;2023-05-02T11:05:18;22.63;;;19.50;;
19414;SDS011;9843;48.882;12.592;2023-05-02T11:07:45;20.60;;;18.07;;
19414;SDS011;9843;48.882;12.592;2023-05-02T11:10:25;19.73;;;16.27;;
19414;SDS011;9843;48.882;12.592;2023-05-02T11:12:54;16.50;;;14.37;;
19414;SDS011;9843;48.882;12.592;2023-05-02T11:18:07;13.93;;;12.43;;
19414;SDS011;9843;48.882;12.592;2023-05-02T11:20:36;14.93;;;13.43;;
19414;SDS011;9843;48.882;12.592;2023-05-02T11:23:19;14.10;;;11.97;;
19414;SDS011;9843;48.882;12.592;2023-05-02T11:25:47;13.53;;;12.10;;
19414;SDS011;9843;48.882;12.592;2023-05-02T11:31:01;12.47;;;10.67;;
19414;SDS011;9843;48.882;12.592;2023-05-02T11:33:28;13.07;;;11.77;;
19414;SDS011;9843;48.882;12.592;2023-05-02T11:35:56;10.10;;;8.63;;
19414;SDS011;9843;48.882;12.592;2023-05-02T11:38:23;11.87;;;9.60;;
19414;SDS011;9843;48.882;12.592;2023-05-02T11:40:54;12.57;;;9.87;;
19414;SDS011;9843;48.882;12.592;2023-05-02T11:43:22;11.43;;;8.93;;
19414;SDS011;9843;48.882;12.592;2023-05-02T11:45:50;10.93;;;7.20;;
19414;SDS011;9843;48.882;12.592;2023-05-02T11:48:19;8.80;;;7.73;;
19414;SDS011;9843;48.882;12.592;2023-05-02T11:50:46;9.03;;;8.13;;
19414;SDS011;9843;48.882;12.592;2023-05-02T11:53:15;9.05;;;8.15;;
19414;SDS011;9843;48.882;12.592;2023-05-02T11:55:46;11.83;;;8.53;;
19414;SDS011;9843;48.882;12.592;2023-05-02T11:58:14;10.80;;;8.40;;
19414;SDS011;9843;48.882;12.592;2023-05-02T12:00:41;8.83;;;7.43;;
19414;SDS011;9843;48.882;12.592;2023-05-02T12:03:19;10.02;;;8.52;;
19414;SDS011;9843;48.882;12.592;2023-05-02T12:05:47;7.83;;;7.03;;
19414;SDS011;9843;48.882;12.592;2023-05-02T12:08:17;5.90;;;5.33;;
19414;SDS011;9843;48.882;12.592;2023-05-02T12:10:45;9.13;;;6.20;;
19414;SDS011;9843;48.882;12.592;2023-05-02T12:13:12;6.97;;;6.20;;
19414;SDS011;9843;48.882;12.592;2023-05-02T12:15:39;8.75;;;6.70;;
19414;SDS011;9843;48.882;12.592;2023-05-02T12:18:06;9.15;;;7.47;;
19414;SDS011;9843;48.882;12.592;2023-05-02T12:20:35;8.88;;;7.82;;
19414;SDS011;9843;48.882;12.592;2023-05-02T12:23:02;7.72;;;5.53;;
19414;SDS011;9843;48.882;12.592;2023-05-02T12:25:31;7.93;;;6.55;;
19414;SDS011;9843;48.882;12.592;2023-05-02T12:27:58;11.88;;;6.05;;
19414;SDS011;9843;48.882;12.592;2023-05-02T12:30:26;8.85;;;6.93;;
19414;SDS011;9843;48.882;12.592;2023-05-02T12:32:56;9.27;;;6.30;;
19414;SDS011;9843;48.882;12.592;2023-05-02T12:35:23;5.65;;;4.97;;
19414;SDS011;9843;48.882;12.592;2023-05-02T12:37:52;6.78;;;5.07;;
19414;SDS011;9843;48.882;12.592;2023-05-02T12:40:20;6.13;;;5.28;;
19414;SDS011;9843;48.882;12.592;2023-05-02T12:42:57;9.63;;;5.68;;
19414;SDS011;9843;48.882;12.592;2023-05-02T12:45:25;4.67;;;3.63;;
19414;SDS011;9843;48.882;12.592;2023-05-02T12:47:57;7.40;;;6.20;;
19414;SDS011;9843;48.882;12.592;2023-05-02T12:50:33;7.10;;;6.22;;
19414;SDS011;9843;48.882;12.592;2023-05-02T12:53:03;6.45;;;5.85;;
19414;SDS011;9843;48.882;12.592;2023-05-02T12:55:30;8.50;;;6.13;;
19414;SDS011;9843;48.882;12.592;2023-05-02T12:58:00;5.63;;;5.00;;
19414;SDS011;9843;48.882;12.592;2023-05-02T13:00:28;6.10;;;4.85;;
19414;SDS011;9843;48.882;12.592;2023-05-02T13:02:55;5.78;;;4.10;;
19414;SDS011;9843;48.882;12.592;2023-05-02T13:05:22;8.50;;;5.80;;
19414;SDS011;9843;48.882;12.592;2023-05-02T13:07:49;6.77;;;5.77;;
19414;SDS011;9843;48.882;12.592;2023-05-02T13:10:18;6.03;;;4.90;;
19414;SDS011;9843;48.882;12.592;2023-05-02T13:12:45;6.33;;;4.20;;
19414;SDS011;9843;48.882;12.592;2023-05-02T13:15:12;5.13;;;4.07;;
19414;SDS011;9843;48.882;12.592;2023-05-02T13:17:39;10.07;;;4.73;;
19414;SDS011;9843;48.882;12.592;2023-05-02T13:20:07;6.23;;;3.70;;
19414;SDS011;9843;48.882;12.592;2023-05-02T13:22:34;7.80;;;3.87;;
19414;SDS011;9843;48.882;12.592;2023-05-02T13:25:01;4.80;;;3.77;;
19414;SDS011;9843;48.882;12.592;2023-05-02T13:27:30;5.23;;;3.30;;
19414;SDS011;9843;48.882;12.592;2023-05-02T13:29:58;4.90;;;3.17;;
19414;SDS011;9843;48.882;12.592;2023-05-02T13:32:25;4.23;;;3.33;;
19414;SDS011;9843;48.882;12.592;2023-05-02T13:34:52;4.10;;;3.17;;
19414;SDS011;9843;48.882;12.592;2023-05-02T13:37:19;3.57;;;3.20;;
19414;SDS011;9843;48.882;12.592;2023-05-02T13:39:47;6.50;;;3.80;;
19414;SDS011;9843;48.882;12.592;2023-05-02T13:42:14;4.57;;;3.33;;
19414;SDS011;9843;48.882;12.592;2023-05-02T13:44:42;4.23;;;3.83;;
19414;SDS011;9843;48.882;12.592;2023-05-02T13:47:09;6.37;;;3.67;;
19414;SDS011;9843;48.882;12.592;2023-05-02T13:49:36;8.80;;;4.40;;
19414;SDS011;9843;48.882;12.592;2023-05-02T13:52:03;4.73;;;3.67;;
19414;SDS011;9843;48.882;12.592;2023-05-02T13:54:31;6.53;;;4.43;;
19414;SDS011;9843;48.882;12.592;2023-05-02T13:56:58;3.97;;;3.17;;
19414;SDS011;9843;48.882;12.592;2023-05-02T13:59:26;4.90;;;4.40;;
19414;SDS011;9843;48.882;12.592;2023-05-02T14:01:55;4.43;;;3.53;;
19414;SDS011;9843;48.882;12.592;2023-05-02T14:04:22;4.00;;;3.60;;
19414;SDS011;9843;48.882;12.592;2023-05-02T14:06:49;6.53;;;3.87;;
19414;SDS011;9843;48.882;12.592;2023-05-02T14:09:16;7.13;;;4.10;;
19414;SDS011;9843;48.882;12.592;2023-05-02T14:11:43;3.73;;;3.27;;
19414;SDS011;9843;48.882;12.592;2023-05-02T14:14:11;5.43;;;4.33;;
19414;SDS011;9843;48.882;12.592;2023-05-02T14:16:38;5.87;;;3.77;;
19414;SDS011;9843;48.882;12.592;2023-05-02T14:19:06;6.37;;;3.20;;
19414;SDS011;9843;48.882;12.592;2023-05-02T14:21:33;5.40;;;3.77;;
19414;SDS011;9843;48.882;12.592;2023-05-02T14:24:01;4.97;;;4.47;;
19414;SDS011;9843;48.882;12.592;2023-05-02T14:26:28;6.37;;;3.37;;
19414;SDS011;9843;48.882;12.592;2023-05-02T14:28:55;6.30;;;4.03;;
19414;SDS011;9843;48.882;12.592;2023-05-02T14:31:22;6.20;;;3.17;;
19414;SDS011;9843;48.882;12.592;2023-05-02T14:33:49;9.10;;;4.03;;
19414;SDS011;9843;48.882;12.592;2023-05-02T14:36:18;4.33;;;4.03;;
19414;SDS011;9843;48.882;12.592;2023-05-02T14:38:45;4.60;;;4.20;;
19414;SDS011;9843;48.882;12.592;2023-05-02T14:41:12;6.63;;;3.97;;
19414;SDS011;9843;48.882;12.592;2023-05-02T14:43:39;3.93;;;3.63;;
19414;SDS011;9843;48.882;12.592;2023-05-02T14:46:06;5.70;;;5.13;;